sensor_id;sensor_type;location;lat;lon;timestamp;pressure;altitude;pressure_sealevel;temperature;humidity
36354;BME280;22383;51.114;13.666;2023-08-24T00:02:03;69186.72;;;18.06;100.00
36354;BME280;22383;51.114;13.666;2023-08-24T00:04:30;69182.31;;;18.04;100.00
36354;BME280;22383;51.114;13.666;2023-08-24T00:06:58;69189.38;;;18.06;100.00
36354;BME280;22383;51.114;13.666;2023-08-24T00:09:26;69190.84;;;18.12;100.00
36354;BME280;22383;51.114;13.666;2023-08-24T00:11:53;69191.59;;;18.15;100.00
36354;BME280;22383;51.114;13.666;2023-08-24T00:14:20;69189.91;;;18.13;100.00
36354;BME280;22383;51.114;13.666;2023-08-24T00:16:48;69190.28;;;18.11;100.00
36354;BME280;22383;51.114;13.666;2023-08-24T00:19:16;69188.59;;;18.10;100.00
36354;BME280;22383;51.114;13.666;2023-08-24T00:21:43;69184.59;;;18.06;100.00
36354;BME280;22383;51.114;13.666;2023-08-24T00:24:10;69185.16;;;18.07;100.00
36354;BME280;22383;51.114;13.666;2023-08-24T00:26:37;69183.28;;;18.03;100.00
36354;BME280;22383;51.114;13.666;2023-08-24T00:29:04;69185.00;;;18.04;100.00
36354;BME280;22383;51.114;13.666;2023-08-24T00:31:32;69183.63;;;18.08;100.00
36354;BME280;22383;51.114;13.666;2023-08-24T00:33:59;69181.16;;;18.03;100.00
36354;BME280;22383;51.114;13.666;2023-08-24T00:36:27;69174.16;;;17.94;100.00
36354;BME280;22383;51.114;13.666;2023-08-24T00:38:54;69156.25;;;17.83;100.00
36354;BME280;22383;51.114;13.666;2023-08-24T00:41:21;69165.22;;;17.89;100.00
36354;BME280;22383;51.114;13.666;2023-08-24T00:43:51;69167.88;;;17.89;100.00
36354;BME280;22383;51.114;13.666;2023-08-24T00:46:18;69161.19;;;17.85;100.00
36354;BME280;22383;51.114;13.666;2023-08-24T00:48:46;69149.22;;;17.74;100.00
36354;BME280;22383;51.114;13.666;2023-08-24T00:51:14;69153.44;;;17.73;100.00
36354;BME280;22383;51.114;13.666;2023-08-24T00:53:41;69156.47;;;17.79;100.00
36354;BME280;22383;51.114;13.666;2023-08-24T00:56:09;69154.75;;;17.77;100.00
36354;BME280;22383;51.114;13.666;2023-08-24T00:58:38;69154.75;;;17.77;100.00
36354;BME280;22383;51.114;13.666;2023-08-24T01:01:05;69143.94;;;17.67;100.00
36354;BME280;22383;51.114;13.666;2023-08-24T01:03:33;69135.56;;;17.62;100.00
36354;BME280;22383;51.114;13.666;2023-08-24T01:06:00;69131.94;;;17.56;100.00
36354;BME280;22383;51.114;13.666;2023-08-24T01:08:27;69118.84;;;17.45;100.00
36354;BME280;22383;51.114;13.666;2023-08-24T01:13:59;69125.13;;;17.50;100.00
36354;BME280;22383;51.114;13.666;2023-08-24T01:16:31;69119.81;;;17.43;100.00
36354;BME280;22383;51.114;13.666;2023-08-24T01:19:02;69122.25;;;17.48;100.00
36354;BME280;22383;51.114;13.666;2023-08-24T01:21:33;69108.38;;;17.40;100.00
36354;BME280;22383;51.114;13.666;2023-08-24T01:24:18;69090.53;;;17.22;100.00
36354;BME280;22383;51.114;13.666;2023-08-24T01:26:53;69096.63;;;17.25;100.00
36354;BME280;22383;51.114;13.666;2023-08-24T01:29:22;69104.03;;;17.31;100.00
36354;BME280;22383;51.114;13.666;2023-08-24T01:31:49;69109.16;;;17.36;100.00
36354;BME280;22383;51.114;13.666;2023-08-24T01:34:17;69101.91;;;17.32;100.00
36354;BME280;22383;51.114;13.666;2023-08-24T01:36:44;69108.78;;;17.38;100.00
36354;BME280;22383;51.114;13.666;2023-08-24T01:39:24;69107.06;;;17.36;100.00
36354;BME280;22383;51.114;13.666;2023-08-24T01:41:56;69113.31;;;17.42;100.00
36354;BME280;22383;51.114;13.666;2023-08-24T01:44:29;69124.72;;;17.52;100.00
36354;BME280;22383;51.114;13.666;2023-08-24T01:47:01;69122.44;;;17.50;100.00
36354;BME280;22383;51.114;13.666;2023-08-24T01:49:29;69119.03;;;17.47;100.00
36354;BME280;22383;51.114;13.666;2023-08-24T01:51:57;69119.81;;;17.43;100.00
36354;BME280;22383;51.114;13.666;2023-08-24T01:54:25;69099.66;;;17.30;100.00
36354;BME280;22383;51.114;13.666;2023-08-24T01:56:54;69103.47;;;17.31;100.00
36354;BME280;22383;51.114;13.666;2023-08-24T01:59:21;69084.09;;;17.13;100.00
36354;BME280;22383;51.114;13.666;2023-08-24T02:01:49;69070.78;;;17.06;100.00
36354;BME280;22383;51.114;13.666;2023-08-24T02:04:16;69063.00;;;16.94;100.00
36354;BME280;22383;51.114;13.666;2023-08-24T02:06:44;69055.03;;;16.87;100.00
36354;BME280;22383;51.114;13.666;2023-08-24T02:09:11;69048.38;;;16.84;100.00
36354;BME280;22383;51.114;13.666;2023-08-24T02:11:38;69046.66;;;16.82;100.00
36354;BME280;22383;51.114;13.666;2023-08-24T02:14:05;69050.25;;;16.88;100.00
36354;BME280;22383;51.114;13.666;2023-08-24T02:16:36;69047.78;;;16.83;100.00
36354;BME280;22383;51.114;13.666;2023-08-24T02:19:05;69044.38;;;16.80;100.00
36354;BME280;22383;51.114;13.666;2023-08-24T02:21:35;69052.00;;;16.82;100.00
36354;BME280;22383;51.114;13.666;2023-08-24T02:24:04;69044.38;;;16.80;100.00
36354;BME280;22383;51.114;13.666;2023-08-24T02:26:31;69031.28;;;16.68;100.00
36354;BME280;22383;51.114;13.666;2023-08-24T02:28:59;69032.22;;;16.67;100.00
36354;BME280;22383;51.114;13.666;2023-08-24T02:31:26;69029.56;;;16.67;100.00
36354;BME280;22383;51.114;13.666;2023-08-24T02:33:55;69024.09;;;16.57;100.00
36354;BME280;22383;51.114;13.666;2023-08-24T02:36:22;69021.59;;;16.59;100.00
36354;BME280;22383;51.114;13.666;2023-08-24T02:38:49;69015.88;;;16.54;100.00
36354;BME280;22383;51.114;13.666;2023-08-24T02:41:18;69011.91;;;16.51;100.00
36354;BME280;22383;51.114;13.666;2023-08-24T02:43:45;69011.75;;;16.48;100.00
36354;BME280;22383;51.114;13.666;2023-08-24T02:46:13;68997.09;;;16.37;100.00
36354;BME280;22383;51.114;13.666;2023-08-24T02:48:41;69011.16;;;16.48;100.00
36354;BME280;22383;51.114;13.666;2023-08-24T02:51:08;68999.38;;;16.39;100.00
36354;BME280;22383;51.114;13.666;2023-08-24T02:53:36;69004.50;;;16.44;100.00
36354;BME280;22383;51.114;13.666;2023-08-24T02:56:03;68992.94;;;16.31;100.00
36354;BME280;22383;51.114;13.666;2023-08-24T02:58:31;68991.59;;;16.35;100.00
36354;BME280;22383;51.114;13.666;2023-08-24T03:00:58;69000.91;;;16.38;100.00
36354;BME280;22383;51.114;13.666;2023-08-24T03:03:25;68994.09;;;16.32;100.00
36354;BME280;22383;51.114;13.666;2023-08-24T03:08:24;68983.25;;;16.22;100.00
36354;BME280;22383;51.114;13.666;2023-08-24T03:10:52;68973.75;;;16.16;100.00
36354;BME280;22383;51.114;13.666;2023-08-24T03:13:19;68958.41;;;16.02;100.00
36354;BME280;22383;51.114;13.666;2023-08-24T03:15:47;68957.41;;;16.04;100.00
36354;BME280;22383;51.114;13.666;2023-08-24T03:18:16;68970.16;;;16.11;100.00
36354;BME280;22383;51.114;13.666;2023-08-24T03:20:44;68963.16;;;16.02;100.00
36354;BME280;22383;51.114;13.666;2023-08-24T03:23:14;68959.91;;;16.01;100.00
36354;BME280;22383;51.114;13.666;2023-08-24T03:25:42;68957.66;;;15.99;100.00
36354;BME280;22383;51.114;13.666;2023-08-24T03:28:09;68954.41;;;15.99;100.00
36354;BME280;22383;51.114;13.666;2023-08-24T03:30:39;68959.91;;;16.01;100.00
36354;BME280;22383;51.114;13.666;2023-08-24T03:33:07;68953.84;;;15.98;100.00
36354;BME280;22383;51.114;13.666;2023-08-24T03:35:35;68948.72;;;15.94;100.00
36354;BME280;22383;51.114;13.666;2023-08-24T03:38:02;68954.44;;;15.92;100.00
36354;BME280;22383;51.114;13.666;2023-08-24T03:40:31;68946.81;;;15.90;100.00
36354;BME280;22383;51.114;13.666;2023-08-24T03:42:58;68943.41;;;15.86;100.00
36354;BME280;22383;51.114;13.666;2023-08-24T03:45:25;68940.56;;;15.84;100.00
36354;BME280;22383;51.114;13.666;2023-08-24T03:47:53;68930.09;;;15.79;100.00
36354;BME280;22383;51.114;13.666;2023-08-24T03:50:21;68937.91;;;15.84;100.00
36354;BME280;22383;51.114;13.666;2023-08-24T03:52:51;68929.94;;;15.77;100.00
36354;BME280;22383;51.114;13.666;2023-08-24T03:55:18;68937.91;;;15.84;100.00
36354;BME280;22383;51.114;13.666;2023-08-24T03:57:45;68923.66;;;15.71;100.00
36354;BME280;22383;51.114;13.666;2023-08-24T04:00:13;68926.50;;;15.74;100.00
36354;BME280;22383;51.114;13.666;2023-08-24T04:02:41;68924.22;;;15.72;100.00
36354;BME280;22383;51.114;13.666;2023-08-24T04:05:14;68932.38;;;15.74;100.00
36354;BME280;22383;51.114;13.666;2023-08-24T04:07:41;68927.66;;;15.75;100.00
36354;BME280;22383;51.114;13.666;2023-08-24T04:10:09;68919.47;;;15.65;100.00
36354;BME280;22383;51.114;13.666;2023-08-24T04:12:36;68920.22;;;15.68;100.00
36354;BME280;22383;51.114;13.666;2023-08-24T04:15:04;68924.59;;;15.69;100.00
36354;BME280;22383;51.114;13.666;2023-08-24T04:17:31;68925.97;;;15.66;100.00
36354;BME280;22383;51.114;13.666;2023-08-24T04:20:00;68924.59;;;15.69;100.00
36354;BME280;22383;51.114;13.666;2023-08-24T04:22:27;68919.09;;;15.67;100.00
36354;BME280;22383;51.114;13.666;2023-08-24T04:24:54;68918.53;;;15.66;100.00
36354;BME280;22383;51.114;13.666;2023-08-24T04:27:21;68913.78;;;15.60;100.00
36354;BME280;22383;51.114;13.666;2023-08-24T04:29:48;68915.69;;;15.64;100.00
36354;BME280;22383;51.114;13.666;2023-08-24T04:32:16;68920.22;;;15.68;100.00
36354;BME280;22383;51.114;13.666;2023-08-24T04:34:43;68919.09;;;15.67;100.00
36354;BME280;22383;51.114;13.666;2023-08-24T04:37:10;68918.91;;;15.64;100.00
36354;BME280;22383;51.114;13.666;2023-08-24T04:39:38;68918.53;;;15.66;100.00
36354;BME280;22383;51.114;13.666;2023-08-24T04:42:05;68916.81;;;15.65;100.00
36354;BME280;22383;51.114;13.666;2023-08-24T04:44:33;68929.16;;;15.74;100.00
36354;BME280;22383;51.114;13.666;2023-08-24T04:47:00;68927.06;;;15.74;100.00
36354;BME280;22383;51.114;13.666;2023-08-24T04:49:29;68924.22;;;15.72;100.00
36354;BME280;22383;51.114;13.666;2023-08-24T04:51:56;68922.09;;;15.72;100.00
36354;BME280;22383;51.114;13.666;2023-08-24T04:54:23;68936.97;;;15.78;100.00
36354;BME280;22383;51.114;13.666;2023-08-24T04:56:51;68936.59;;;15.80;100.00
36354;BME280;22383;51.114;13.666;2023-08-24T04:59:18;68933.91;;;15.80;100.00
36354;BME280;22383;51.114;13.666;2023-08-24T05:01:45;68929.72;;;15.74;100.00
36354;BME280;22383;51.114;13.666;2023-08-24T05:04:12;68917.97;;;15.66;100.00
36354;BME280;22383;51.114;13.666;2023-08-24T05:06:39;68912.28;;;15.61;100.00
36354;BME280;22383;51.114;13.666;2023-08-24T05:09:07;68916.25;;;15.64;100.00
36354;BME280;22383;51.114;13.666;2023-08-24T05:11:35;68916.81;;;15.65;100.00
36354;BME280;22383;51.114;13.666;2023-08-24T05:14:02;68920.63;;;15.66;100.00
36354;BME280;22383;51.114;13.666;2023-08-24T05:16:30;68911.50;;;15.58;100.00
36354;BME280;22383;51.114;13.666;2023-08-24T05:18:57;68905.44;;;15.55;100.00
36354;BME280;22383;51.114;13.666;2023-08-24T05:21:24;68907.69;;;15.57;100.00
36354;BME280;22383;51.114;13.666;2023-08-24T05:23:51;68920.44;;;15.63;100.00
36354;BME280;22383;51.114;13.666;2023-08-24T05:26:18;68923.06;;;15.70;100.00
36354;BME280;22383;51.114;13.666;2023-08-24T05:28:49;68932.03;;;15.76;100.00
36354;BME280;22383;51.114;13.666;2023-08-24T05:31:17;68925.72;;;15.70;100.00
36354;BME280;22383;51.114;13.666;2023-08-24T05:33:47;68931.25;;;15.80;100.00
36354;BME280;22383;51.114;13.666;2023-08-24T05:36:14;68951.75;;;15.92;100.00
36354;BME280;22383;51.114;13.666;2023-08-24T05:38:42;68932.75;;;15.79;100.00
36354;BME280;22383;51.114;13.666;2023-08-24T05:41:31;68948.72;;;15.94;100.00
36354;BME280;22383;51.114;13.666;2023-08-24T05:43:58;68958.03;;;15.97;100.00
36354;BME280;22383;51.114;13.666;2023-08-24T05:46:26;68978.13;;;16.18;100.00
36354;BME280;22383;51.114;13.666;2023-08-24T05:48:53;68980.59;;;16.22;100.00
36354;BME280;22383;51.114;13.666;2023-08-24T05:51:20;68995.78;;;16.34;100.00
36354;BME280;22383;51.114;13.666;2023-08-24T05:53:47;69012.47;;;16.51;100.00
36354;BME280;22383;51.114;13.666;2023-08-24T05:56:15;69007.91;;;16.47;100.00
36354;BME280;22383;51.114;13.666;2023-08-24T05:58:42;69020.28;;;16.56;100.00
36354;BME280;22383;51.114;13.666;2023-08-24T06:01:09;69020.44;;;16.58;100.00
36354;BME280;22383;51.114;13.666;2023-08-24T06:03:36;69031.66;;;16.66;100.00
36354;BME280;22383;51.114;13.666;2023-08-24T06:06:04;69054.28;;;16.84;100.00
36354;BME280;22383;51.114;13.666;2023-08-24T06:08:31;69053.69;;;16.91;100.00
36354;BME280;22383;51.114;13.666;2023-08-24T06:10:58;69078.56;;;17.11;100.00
36354;BME280;22383;51.114;13.666;2023-08-24T06:13:26;69092.81;;;17.24;100.00
36354;BME280;22383;51.114;13.666;2023-08-24T06:15:53;69086.16;;;17.20;100.00
36354;BME280;22383;51.114;13.666;2023-08-24T06:18:21;69121.88;;;17.50;100.00
36354;BME280;22383;51.114;13.666;2023-08-24T06:20:49;69168.81;;;17.94;100.00
36354;BME280;22383;51.114;13.666;2023-08-24T06:23:19;69200.00;;;18.20;100.00
36354;BME280;22383;51.114;13.666;2023-08-24T06:25:48;69201.69;;;18.22;100.00
36354;BME280;22383;51.114;13.666;2023-08-24T06:28:15;69193.88;;;18.17;100.00
36354;BME280;22383;51.114;13.666;2023-08-24T06:30:43;69195.25;;;18.13;100.00
36354;BME280;22383;51.114;13.666;2023-08-24T06:33:10;69170.91;;;17.94;100.00
36354;BME280;22383;51.114;13.666;2023-08-24T06:35:38;69181.16;;;18.03;100.00
36354;BME280;22383;51.114;13.666;2023-08-24T06:38:05;69202.66;;;18.20;100.00
36354;BME280;22383;51.114;13.666;2023-08-24T06:40:32;69207.97;;;18.27;100.00
36354;BME280;22383;51.114;13.666;2023-08-24T06:43:00;69222.97;;;18.43;100.00
36354;BME280;22383;51.114;13.666;2023-08-24T06:45:27;69235.34;;;18.52;100.00
36354;BME280;22383;51.114;13.666;2023-08-24T06:47:54;69248.47;;;18.64;100.00
36354;BME280;22383;51.114;13.666;2023-08-24T06:50:21;69261.56;;;18.76;100.00
36354;BME280;22383;51.114;13.666;2023-08-24T06:52:49;69280.25;;;18.90;100.00
36354;BME280;22383;51.114;13.666;2023-08-24T06:55:16;69292.22;;;19.01;100.00
36354;BME280;22383;51.114;13.666;2023-08-24T06:57:47;69290.13;;;19.01;100.00
36354;BME280;22383;51.114;13.666;2023-08-24T07:00:16;69313.34;;;19.20;100.00
36354;BME280;22383;51.114;13.666;2023-08-24T07:02:43;69313.50;;;19.22;100.00
36354;BME280;22383;51.114;13.666;2023-08-24T07:05:10;69324.91;;;19.33;100.00
36354;BME280;22383;51.114;13.666;2023-08-24T07:07:39;69351.56;;;19.54;100.00
36354;BME280;22383;51.114;13.666;2023-08-24T07:10:10;69368.13;;;19.69;100.00
36354;BME280;22383;51.114;13.666;2023-08-24T07:12:37;69373.03;;;19.78;100.00
36354;BME280;22383;51.114;13.666;2023-08-24T07:15:08;69374.00;;;19.77;100.00
36354;BME280;22383;51.114;13.666;2023-08-24T07:17:35;69392.84;;;19.94;100.00
36354;BME280;22383;51.114;13.666;2023-08-24T07:20:03;69410.72;;;20.12;100.00
36354;BME280;22383;51.114;13.666;2023-08-24T07:22:35;69420.66;;;20.16;100.00
36354;BME280;22383;51.114;13.666;2023-08-24T07:25:04;69426.53;;;20.24;100.00
36354;BME280;22383;51.114;13.666;2023-08-24T07:27:33;69440.41;;;20.39;100.00
36354;BME280;22383;51.114;13.666;2023-08-24T07:30:01;69467.06;;;20.61;100.00
36354;BME280;22383;51.114;13.666;2023-08-24T07:32:48;69478.53;;;20.71;100.00
36354;BME280;22383;51.114;13.666;2023-08-24T07:35:15;69476.25;;;20.69;100.00
36354;BME280;22383;51.114;13.666;2023-08-24T07:37:43;69496.78;;;20.87;100.00
36354;BME280;22383;51.114;13.666;2023-08-24T07:40:10;69510.69;;;21.02;100.00
36354;BME280;22383;51.114;13.666;2023-08-24T07:42:46;69525.94;;;21.13;100.00
36354;BME280;22383;51.114;13.666;2023-08-24T07:45:14;69538.50;;;21.25;100.00
36354;BME280;22383;51.114;13.666;2023-08-24T07:47:41;69552.94;;;21.40;100.00
36354;BME280;22383;51.114;13.666;2023-08-24T07:50:09;69575.09;;;21.58;100.00
36354;BME280;22383;51.114;13.666;2023-08-24T07:52:40;69594.94;;;21.73;100.00
36354;BME280;22383;51.114;13.666;2023-08-24T07:55:08;69605.53;;;21.87;100.00
36354;BME280;22383;51.114;13.666;2023-08-24T07:57:36;69581.72;;;21.85;100.00
36354;BME280;22383;51.114;13.666;2023-08-24T08:00:05;69579.44;;;21.83;100.00
36354;BME280;22383;51.114;13.666;2023-08-24T08:02:41;69625.38;;;22.03;100.00
36354;BME280;22383;51.114;13.666;2023-08-24T08:05:08;69647.53;;;22.20;100.00
36354;BME280;22383;51.114;13.666;2023-08-24T08:07:37;69672.28;;;22.45;100.00
36354;BME280;22383;51.114;13.666;2023-08-24T08:10:05;69666.31;;;22.61;100.00
36354;BME280;22383;51.114;13.666;2023-08-24T08:12:34;69710.03;;;22.79;100.00
36354;BME280;22383;51.114;13.666;2023-08-24T08:15:02;69723.19;;;22.91;100.00
36354;BME280;22383;51.114;13.666;2023-08-24T08:17:29;69745.91;;;23.09;100.00
36354;BME280;22383;51.114;13.666;2023-08-24T08:19:58;69751.81;;;23.16;100.00
36354;BME280;22383;51.114;13.666;2023-08-24T08:22:25;69763.81;;;23.27;100.00
36354;BME280;22383;51.114;13.666;2023-08-24T08:24:52;69779.28;;;23.41;100.00
36354;BME280;22383;51.114;13.666;2023-08-24T08:27:25;69790.31;;;23.53;100.00
36354;BME280;22383;51.114;13.666;2023-08-24T08:29:53;69807.31;;;23.66;100.00
36354;BME280;22383;51.114;13.666;2023-08-24T08:32:20;69826.78;;;23.84;100.00
36354;BME280;22383;51.114;13.666;2023-08-24T08:34:47;69834.22;;;23.90;100.00
36354;BME280;22383;51.114;13.666;2023-08-24T08:37:14;69839.38;;;23.95;100.00
36354;BME280;22383;51.114;13.666;2023-08-24T08:39:42;69851.97;;;24.06;100.00
36354;BME280;22383;51.114;13.666;2023-08-24T08:42:13;69869.16;;;24.22;100.00
36354;BME280;22383;51.114;13.666;2023-08-24T08:44:43;69884.59;;;24.35;100.00
36354;BME280;22383;51.114;13.666;2023-08-24T08:47:11;69877.16;;;24.29;100.00
36354;BME280;22383;51.114;13.666;2023-08-24T08:49:39;69883.47;;;24.34;100.00
36354;BME280;22383;51.114;13.666;2023-08-24T08:52:06;69895.91;;;24.43;100.00
36354;BME280;22383;51.114;13.666;2023-08-24T08:54:34;69904.06;;;24.53;100.00
36354;BME280;22383;51.114;13.666;2023-08-24T08:57:01;69887.19;;;24.60;100.00
36354;BME280;22383;51.114;13.666;2023-08-24T08:59:30;69918.56;;;24.68;100.00
36354;BME280;22383;51.114;13.666;2023-08-24T09:01:57;69930.00;;;24.79;100.00
36354;BME280;22383;51.114;13.666;2023-08-24T09:04:25;69936.72;;;24.82;96.30
36354;BME280;22383;51.114;13.666;2023-08-24T09:06:53;69932.16;;;24.78;88.79
36354;BME280;22383;51.114;13.666;2023-08-24T09:09:21;69923.81;;;24.92;89.95
36354;BME280;22383;51.114;13.666;2023-08-24T09:11:50;69964.81;;;25.07;89.85
36354;BME280;22383;51.114;13.666;2023-08-24T09:14:18;69977.56;;;25.21;93.15
36354;BME280;22383;51.114;13.666;2023-08-24T09:16:45;69982.72;;;25.26;86.11
36354;BME280;22383;51.114;13.666;2023-08-24T09:19:13;70004.91;;;25.43;86.66
36354;BME280;22383;51.114;13.666;2023-08-24T09:21:40;70000.59;;;25.61;88.54
36354;BME280;22383;51.114;13.666;2023-08-24T09:24:10;70048.06;;;25.84;83.60
36354;BME280;22383;51.114;13.666;2023-08-24T09:26:38;70050.03;;;25.81;81.44
36354;BME280;22383;51.114;13.666;2023-08-24T09:29:14;70048.63;;;25.85;79.96
36354;BME280;22383;51.114;13.666;2023-08-24T09:31:42;70059.91;;;25.93;81.66
36354;BME280;22383;51.114;13.666;2023-08-24T09:34:12;70022.91;;;25.81;77.94
36354;BME280;22383;51.114;13.666;2023-08-24T09:36:40;70042.16;;;25.77;76.40
36354;BME280;22383;51.114;13.666;2023-08-24T09:39:07;70058.78;;;25.92;76.60
36354;BME280;22383;51.114;13.666;2023-08-24T09:41:41;70063.38;;;25.96;81.44
36354;BME280;22383;51.114;13.666;2023-08-24T09:44:09;70047.00;;;26.03;74.46
36354;BME280;22383;51.114;13.666;2023-08-24T09:46:36;70069.91;;;26.23;73.44
36354;BME280;22383;51.114;13.666;2023-08-24T09:49:08;70092.19;;;26.24;75.17
36354;BME280;22383;51.114;13.666;2023-08-24T09:51:37;70101.94;;;26.33;84.92
36354;BME280;22383;51.114;13.666;2023-08-24T09:54:09;70080.16;;;26.13;77.31
36354;BME280;22383;51.114;13.666;2023-08-24T09:56:41;70059.63;;;26.14;87.77
36354;BME280;22383;51.114;13.666;2023-08-24T10:01:48;70072.56;;;26.04;88.27
36354;BME280;22383;51.114;13.666;2023-08-24T10:04:22;70066.25;;;25.98;95.64
36354;BME280;22383;51.114;13.666;2023-08-24T10:06:54;70055.34;;;25.89;90.37
36354;BME280;22383;51.114;13.666;2023-08-24T10:09:26;70049.19;;;25.85;84.43
36354;BME280;22383;51.114;13.666;2023-08-24T10:11:58;70060.09;;;25.95;85.88
36354;BME280;22383;51.114;13.666;2023-08-24T10:15:04;70068.97;;;25.98;90.95
36354;BME280;22383;51.114;13.666;2023-08-24T10:17:34;70052.63;;;25.89;96.16
36354;BME280;22383;51.114;13.666;2023-08-24T10:20:05;70034.31;;;25.72;93.86
36354;BME280;22383;51.114;13.666;2023-08-24T10:22:34;70039.88;;;25.75;85.65
36354;BME280;22383;51.114;13.666;2023-08-24T10:25:05;70050.34;;;25.87;86.75
36354;BME280;22383;51.114;13.666;2023-08-24T10:27:34;70081.72;;;26.12;87.05
36354;BME280;22383;51.114;13.666;2023-08-24T10:30:02;70098.91;;;26.28;81.86
36354;BME280;22383;51.114;13.666;2023-08-24T10:32:29;70082.53;;;26.35;89.10
36354;BME280;22383;51.114;13.666;2023-08-24T10:34:56;70101.78;;;26.30;86.47
36354;BME280;22383;51.114;13.666;2023-08-24T10:37:27;70110.53;;;26.40;91.49
36354;BME280;22383;51.114;13.666;2023-08-24T10:39:54;70109.25;;;26.37;87.27
36354;BME280;22383;51.114;13.666;2023-08-24T10:42:22;70113.81;;;26.41;87.07
36354;BME280;22383;51.114;13.666;2023-08-24T10:44:49;70103.66;;;26.34;81.72
36354;BME280;22383;51.114;13.666;2023-08-24T10:47:20;70117.97;;;26.47;80.96
36354;BME280;22383;51.114;13.666;2023-08-24T10:52:25;70115.69;;;26.45;82.38
36354;BME280;22383;51.114;13.666;2023-08-24T10:54:57;70116.69;;;26.44;83.20
36354;BME280;22383;51.114;13.666;2023-08-24T10:57:25;70122.00;;;26.51;81.91
36354;BME280;22383;51.114;13.666;2023-08-24T10:59:59;70125.44;;;26.54;82.16
36354;BME280;22383;51.114;13.666;2023-08-24T11:02:26;70137.91;;;26.63;85.81
36354;BME280;22383;51.114;13.666;2023-08-24T11:05:04;70131.16;;;26.59;85.97
36354;BME280;22383;51.114;13.666;2023-08-24T11:07:32;70123.56;;;26.50;90.42
36354;BME280;22383;51.114;13.666;2023-08-24T11:10:10;70097.19;;;26.26;91.24
36354;BME280;22383;51.114;13.666;2023-08-24T11:15:40;70056.31;;;25.87;91.01
36354;BME280;22383;51.114;13.666;2023-08-24T11:20:42;70062.38;;;25.97;87.93
36354;BME280;22383;51.114;13.666;2023-08-24T11:23:09;70037.84;;;25.95;89.59
36354;BME280;22383;51.114;13.666;2023-08-24T11:25:36;70061.25;;;25.96;82.27
36354;BME280;22383;51.114;13.666;2023-08-24T11:28:04;70061.34;;;26.16;87.88
36354;BME280;22383;51.114;13.666;2023-08-24T11:30:32;70130.88;;;26.54;83.39
36354;BME280;22383;51.114;13.666;2023-08-24T11:33:00;70170.03;;;26.91;79.34
36354;BME280;22383;51.114;13.666;2023-08-24T11:35:28;70184.38;;;27.04;82.18
36354;BME280;22383;51.114;13.666;2023-08-24T11:37:56;70187.22;;;27.07;79.04
36354;BME280;22383;51.114;13.666;2023-08-24T11:40:23;70182.81;;;27.05;78.00
36354;BME280;22383;51.114;13.666;2023-08-24T11:42:57;70167.31;;;26.91;78.77
36354;BME280;22383;51.114;13.666;2023-08-24T11:45:32;70147.66;;;26.71;79.33
36354;BME280;22383;51.114;13.666;2023-08-24T11:48:00;70130.69;;;26.78;83.60
36354;BME280;22383;51.114;13.666;2023-08-24T11:50:28;70156.28;;;26.79;76.42
36354;BME280;22383;51.114;13.666;2023-08-24T11:52:56;70155.84;;;26.81;79.89
36354;BME280;22383;51.114;13.666;2023-08-24T11:55:23;70150.53;;;26.74;73.97
36354;BME280;22383;51.114;13.666;2023-08-24T11:57:50;70157.00;;;26.82;75.82
36354;BME280;22383;51.114;13.666;2023-08-24T12:00:20;70162.78;;;27.07;72.84
36354;BME280;22383;51.114;13.666;2023-08-24T12:02:48;70172.31;;;26.93;80.47
36354;BME280;22383;51.114;13.666;2023-08-24T12:05:22;70151.09;;;26.74;79.74
36354;BME280;22383;51.114;13.666;2023-08-24T12:07:53;70110.03;;;26.59;76.34
36354;BME280;22383;51.114;13.666;2023-08-24T12:10:21;70112.09;;;26.39;80.51
36354;BME280;22383;51.114;13.666;2023-08-24T12:12:49;70060.75;;;26.15;76.78
36354;BME280;22383;51.114;13.666;2023-08-24T12:15:18;70055.50;;;25.91;75.03
36354;BME280;22383;51.114;13.666;2023-08-24T12:17:47;70052.72;;;26.08;78.78
36354;BME280;22383;51.114;13.666;2023-08-24T12:20:22;70072.69;;;26.07;75.27
36354;BME280;22383;51.114;13.666;2023-08-24T12:22:54;70080.81;;;26.33;79.84
36354;BME280;22383;51.114;13.666;2023-08-24T12:25:22;70128.75;;;26.54;83.07
36354;BME280;22383;51.114;13.666;2023-08-24T12:28:08;70120.84;;;26.50;78.33
36354;BME280;22383;51.114;13.666;2023-08-24T12:30:46;70145.59;;;26.91;81.27
36354;BME280;22383;51.114;13.666;2023-08-24T12:33:26;70179.41;;;27.22;75.38
36354;BME280;22383;51.114;13.666;2023-08-24T12:35:55;70221.09;;;27.37;73.96
36354;BME280;22383;51.114;13.666;2023-08-24T12:38:23;70215.94;;;27.32;72.41
36354;BME280;22383;51.114;13.666;2023-08-24T12:40:51;70216.50;;;27.33;73.96
36354;BME280;22383;51.114;13.666;2023-08-24T12:43:19;70189.53;;;27.09;76.89
36354;BME280;22383;51.114;13.666;2023-08-24T12:45:46;70154.75;;;27.00;76.06
36354;BME280;22383;51.114;13.666;2023-08-24T12:48:13;70154.69;;;26.80;74.61
36354;BME280;22383;51.114;13.666;2023-08-24T12:50:40;70142.66;;;26.69;73.26
36354;BME280;22383;51.114;13.666;2023-08-24T12:53:08;70126.44;;;26.52;74.64
36354;BME280;22383;51.114;13.666;2023-08-24T12:55:36;70116.84;;;26.46;76.54
36354;BME280;22383;51.114;13.666;2023-08-24T12:58:03;70097.44;;;26.48;78.49
36354;BME280;22383;51.114;13.666;2023-08-24T13:00:30;70111.19;;;26.60;79.49
36354;BME280;22383;51.114;13.666;2023-08-24T13:02:58;70131.84;;;26.79;77.63
36354;BME280;22383;51.114;13.666;2023-08-24T13:05:25;70153.63;;;26.98;74.79
36354;BME280;22383;51.114;13.666;2023-08-24T13:07:52;70168.47;;;26.92;74.12